createdAt,value
2023-02-06T00:00:54.979Z,100284.50
2023-02-06T00:03:21.739Z,100310.81
2023-02-06T00:05:59.847Z,100316.44
2023-02-06T00:08:27.574Z,100311.22
2023-02-06T00:10:54.614Z,100323.69
2023-02-06T00:13:22.036Z,100317.47
2023-02-06T00:15:48.969Z,100318.91
2023-02-06T00:18:15.888Z,100306.69
2023-02-06T00:20:42.716Z,100327.84
2023-02-06T00:23:10.096Z,100316.66
2023-02-06T00:25:37.262Z,100318.31
2023-02-06T00:28:05.351Z,100309.16
2023-02-06T00:30:32.352Z,100301.72
2023-02-06T00:32:59.473Z,100307.13
2023-02-06T00:35:26.301Z,100310.00
2023-02-06T00:37:53.201Z,100297.78
2023-02-06T00:40:20.121Z,100295.09
2023-02-06T00:42:47.064Z,100300.47
2023-02-06T00:45:14.324Z,100289.69
2023-02-06T00:47:41.357Z,100295.09
2023-02-06T00:50:09.814Z,100290.94
2023-02-06T00:52:36.862Z,100305.88
2023-02-06T00:55:05.489Z,100279.72
2023-02-06T00:57:32.356Z,100296.53
2023-02-06T00:59:59.244Z,100300.91
2023-02-06T01:02:26.810Z,100296.75
2023-02-06T01:04:53.738Z,100285.34
2023-02-06T01:07:20.749Z,100295.91
2023-02-06T01:09:47.675Z,100291.34
2023-02-06T01:12:14.900Z,100282.00
2023-02-06T01:14:41.656Z,100278.47
2023-02-06T01:17:11.587Z,100283.88
2023-02-06T01:19:39.211Z,100290.50
2023-02-06T01:22:07.347Z,100295.25
2023-02-06T01:24:34.508Z,100257.94
2023-02-06T01:27:01.554Z,100284.50
2023-02-06T01:29:28.420Z,100262.69
2023-02-06T01:31:56.177Z,100268.53
2023-02-06T01:34:23.024Z,100257.34
2023-02-06T01:36:49.976Z,100265.63
2023-02-06T01:39:17.092Z,100261.91
2023-02-06T01:41:44.083Z,100262.75
2023-02-06T01:44:13.238Z,100286.78
2023-02-06T01:46:42.683Z,100284.31
2023-02-06T01:49:15.574Z,100277.44
2023-02-06T01:51:43.740Z,100273.31
2023-02-06T01:54:11.092Z,100270.81
2023-02-06T01:56:45.023Z,100272.28
2023-02-06T01:59:12.610Z,100291.34
2023-02-06T02:01:41.186Z,100273.94
2023-02-06T02:04:16.631Z,100288.84
2023-02-06T02:06:50.418Z,100271.44
2023-02-06T02:09:18.551Z,100288.44
2023-02-06T02:11:46.033Z,100283.47
2023-02-06T02:14:15.640Z,100293.00
2023-02-06T02:16:45.591Z,100297.56
2023-02-06T02:19:18.586Z,100299.44
2023-02-06T02:22:15.361Z,100287.59
2023-02-06T02:25:19.702Z,100304.19
2023-02-06T02:28:05.072Z,100316.19
2023-02-06T02:31:00.258Z,100307.47
2023-02-06T02:33:42.076Z,100304.16
2023-02-06T02:36:14.435Z,100309.34
2023-02-06T02:39:00.466Z,100309.97
2023-02-06T02:41:33.903Z,100317.03
2023-02-06T02:44:08.625Z,100313.91
2023-02-06T02:46:40.475Z,100314.94
2023-02-06T02:49:18.608Z,100307.47
2023-02-06T02:51:47.498Z,100304.75
2023-02-06T02:54:14.281Z,100311.84
2023-02-06T02:56:41.804Z,100320.97
2023-02-06T02:59:16.797Z,100324.31
2023-02-06T03:02:05.447Z,100308.13
2023-02-06T03:04:41.085Z,100311.44
2023-02-06T03:07:12.099Z,100320.78
2023-02-06T03:10:03.433Z,100313.13
2023-02-06T03:12:57.370Z,100327.00
2023-02-06T03:15:31.684Z,100291.72
2023-02-06T03:18:24.083Z,100322.63
2023-02-06T03:20:52.254Z,100314.53
2023-02-06T03:23:31.167Z,100313.91
2023-02-06T03:26:02.137Z,100329.25
2023-02-06T03:28:33.998Z,100315.16
2023-02-06T03:31:05.840Z,100315.59
2023-02-06T03:33:39.175Z,100324.09
2023-02-06T03:36:08.508Z,100322.84
2023-02-06T03:38:35.432Z,100321.41
2023-02-06T03:41:03.772Z,100317.88
2023-02-06T03:43:30.850Z,100320.56
2023-02-06T03:46:04.782Z,100311.66
2023-02-06T03:48:37.246Z,100316.22
2023-02-06T03:51:10.180Z,100324.09
2023-02-06T03:53:39.672Z,100306.25
2023-02-06T03:56:11.200Z,100314.78
2023-02-06T03:58:38.312Z,100318.72
2023-02-06T04:01:07.162Z,100331.97
2023-02-06T04:03:34.592Z,100334.44
2023-02-06T04:06:01.527Z,100321.16
2023-02-06T04:08:28.599Z,100323.25
2023-02-06T04:10:55.428Z,100327.00
2023-02-06T04:13:22.392Z,100302.53
2023-02-06T04:15:49.266Z,100329.50
2023-02-06T04:18:16.362Z,100325.56
2023-02-06T04:20:43.155Z,100338.22
2023-02-06T04:23:10.234Z,100331.38
2023-02-06T04:25:37.355Z,100346.91
2023-02-06T04:28:04.644Z,100337.38
2023-02-06T04:30:31.488Z,100328.66
2023-02-06T04:32:58.401Z,100332.19
2023-02-06T04:35:25.466Z,100335.69
2023-02-06T04:37:52.401Z,100351.47
2023-02-06T04:40:19.307Z,100351.47
2023-02-06T04:42:47.033Z,100352.31
2023-02-06T04:45:13.906Z,100352.69
2023-02-06T04:47:40.916Z,100356.84
2023-02-06T04:50:08.231Z,100365.34
2023-02-06T04:52:35.165Z,100365.97
2023-02-06T04:55:02.042Z,100360.78
2023-02-06T04:57:29.077Z,100380.91
2023-02-06T04:59:55.868Z,100365.97
2023-02-06T05:02:22.822Z,100376.78
2023-02-06T05:04:49.693Z,100380.09
2023-02-06T05:07:16.700Z,100376.78
2023-02-06T05:09:43.588Z,100379.69
2023-02-06T05:12:14.211Z,100362.25
2023-02-06T05:14:41.230Z,100378.44
2023-02-06T05:17:08.165Z,100386.53
2023-02-06T05:19:34.925Z,100376.38
2023-02-06T05:22:02.041Z,100396.25
2023-02-06T05:24:29.259Z,100390.03
2023-02-06T05:26:58.474Z,100408.72
2023-02-06T05:29:26.067Z,100397.09
2023-02-06T05:31:54.355Z,100401.03
2023-02-06T05:34:21.235Z,100395.25
2023-02-06T05:36:48.778Z,100403.31
2023-02-06T05:39:15.644Z,100390.06
2023-02-06T05:41:42.630Z,100405.63
2023-02-06T05:44:11.405Z,100404.78
2023-02-06T05:46:38.641Z,100409.53
2023-02-06T05:49:05.998Z,100410.78
2023-02-06T05:51:32.967Z,100410.16
2023-02-06T05:53:59.838Z,100412.88
2023-02-06T05:56:27.044Z,100406.22
2023-02-06T05:58:53.795Z,100402.28
2023-02-06T06:01:20.840Z,100414.75
2023-02-06T06:03:47.958Z,100405.63
2023-02-06T06:06:14.905Z,100408.53
2023-02-06T06:08:41.828Z,100407.69
2023-02-06T06:11:09.101Z,100407.69
2023-02-06T06:13:36.176Z,100416.63
2023-02-06T06:16:03.387Z,100410.81
2023-02-06T06:18:30.556Z,100414.97
2023-02-06T06:20:57.487Z,100424.50
2023-02-06T06:23:24.280Z,100425.34
2023-02-06T06:25:51.218Z,100414.56
2023-02-06T06:28:18.117Z,100413.94
2023-02-06T06:30:45.250Z,100418.50
2023-02-06T06:33:14.315Z,100423.69
2023-02-06T06:35:41.505Z,100410.81
2023-02-06T06:38:08.704Z,100409.97
2023-02-06T06:40:35.829Z,100425.34
2023-02-06T06:43:02.627Z,100425.34
2023-02-06T06:45:29.566Z,100403.75
2023-02-06T06:47:56.416Z,100427.81
2023-02-06T06:50:23.454Z,100432.59
2023-02-06T06:52:50.265Z,100410.19
2023-02-06T06:55:19.621Z,100422.44
2023-02-06T06:57:47.166Z,100441.94
2023-02-06T07:00:16.063Z,100442.97
2023-02-06T07:02:43.500Z,100447.50
2023-02-06T07:05:10.701Z,100440.50
2023-02-06T07:07:39.626Z,100447.34
2023-02-06T07:10:08.383Z,100453.16
2023-02-06T07:12:35.342Z,100452.94
2023-02-06T07:15:02.496Z,100448.59
2023-02-06T07:17:29.276Z,100454.81
2023-02-06T07:19:56.383Z,100444.03
2023-02-06T07:22:23.157Z,100439.03
2023-02-06T07:24:50.425Z,100463.75
2023-02-06T07:27:17.320Z,100459.56
2023-02-06T07:29:44.465Z,100462.91
2023-02-06T07:32:11.662Z,100468.53
2023-02-06T07:34:38.939Z,100472.25
2023-02-06T07:37:05.784Z,100466.22
2023-02-06T07:39:33.296Z,100463.50
2023-02-06T07:42:00.373Z,100466.81
2023-02-06T07:44:33.246Z,100458.56
2023-02-06T07:47:00.251Z,100470.81
2023-02-06T07:49:27.130Z,100468.50
2023-02-06T07:51:54.187Z,100475.16
2023-02-06T07:54:21.197Z,100478.06
2023-02-06T07:56:48.030Z,100471.00
2023-02-06T07:59:15.205Z,100477.63
2023-02-06T08:01:42.021Z,100479.50
2023-02-06T08:04:08.957Z,100465.81
2023-02-06T08:06:36.122Z,100455.44
2023-02-06T08:09:02.997Z,100484.09
2023-02-06T08:11:31.065Z,100481.81
2023-02-06T08:13:58.117Z,100483.06
2023-02-06T08:16:25.208Z,100464.97
2023-02-06T08:18:52.529Z,100479.72
2023-02-06T08:21:22.176Z,100489.28
2023-02-06T08:23:55.280Z,100478.06
2023-02-06T08:26:23.337Z,100481.38
2023-02-06T08:28:52.184Z,100489.91
2023-02-06T08:31:23.706Z,100478.88
2023-02-06T08:33:51.409Z,100480.72
2023-02-06T08:36:20.278Z,100481.78
2023-02-06T08:38:48.134Z,100489.66
2023-02-06T08:41:27.367Z,100488.00
2023-02-06T08:43:59.140Z,100495.03
2023-02-06T08:46:31.773Z,100460.16
2023-02-06T08:49:05.104Z,100440.84
2023-02-06T08:51:33.372Z,100521.19
2023-02-06T08:54:02.226Z,100515.81
2023-02-06T08:56:30.518Z,100519.16
2023-02-06T08:59:01.892Z,100518.31
2023-02-06T09:01:31.672Z,100516.22
2023-02-06T09:04:00.300Z,100515.41
2023-02-06T09:06:28.450Z,100519.78
2023-02-06T09:08:57.128Z,100523.28
2023-02-06T09:11:25.742Z,100511.22
2023-02-06T09:13:56.262Z,100513.22
2023-02-06T09:16:25.552Z,100524.69
2023-02-06T09:19:01.291Z,100516.53
2023-02-06T09:21:33.629Z,100526.75
2023-02-06T09:24:03.978Z,100533.66
2023-02-06T09:26:33.920Z,100538.78
2023-02-06T09:29:03.277Z,100512.47
2023-02-06T09:31:35.347Z,100516.75
2023-02-06T09:34:03.377Z,100517.59
2023-02-06T09:36:30.708Z,100501.56
2023-02-06T09:38:58.348Z,100518.25
2023-02-06T09:41:42.947Z,100525.63
2023-02-06T09:44:27.385Z,100506.78
2023-02-06T09:47:25.459Z,100505.94
2023-02-06T09:50:08.492Z,100507.88
2023-02-06T09:53:05.873Z,100507.06
2023-02-06T09:55:50.350Z,100499.56
2023-02-06T09:58:19.210Z,100502.91
2023-02-06T10:00:51.893Z,100503.34
2023-02-06T10:03:52.143Z,100495.03
2023-02-06T10:06:24.142Z,100507.69
2023-02-06T10:08:58.031Z,100504.13
2023-02-06T10:11:54.520Z,100508.31
2023-02-06T10:14:31.168Z,100502.47
2023-02-06T10:17:03.167Z,100482.56
2023-02-06T10:19:54.803Z,100501.03
2023-02-06T10:22:31.560Z,100498.31
2023-02-06T10:25:40.576Z,100496.69
2023-02-06T10:28:29.385Z,100511.25
2023-02-06T10:31:17.920Z,100517.91
2023-02-06T10:33:50.742Z,100526.63
2023-02-06T10:36:35.595Z,100521.00
2023-02-06T10:39:26.305Z,100520.78
2023-02-06T10:42:09.189Z,100505.41
2023-02-06T10:45:06.592Z,100513.56
2023-02-06T10:47:54.340Z,100494.31
2023-02-06T10:50:30.047Z,100502.97
2023-02-06T10:53:01.805Z,100507.38
2023-02-06T10:55:45.564Z,100519.03
2023-02-06T10:58:25.424Z,100518.47
2023-02-06T11:00:53.401Z,100521.00
2023-02-06T11:03:24.400Z,100519.09
2023-02-06T11:05:52.779Z,100526.19
2023-02-06T11:08:27.970Z,100520.72
2023-02-06T11:10:55.444Z,100517.19
2023-02-06T11:13:34.177Z,100499.13
2023-02-06T11:16:02.983Z,100520.06
2023-02-06T11:18:41.861Z,100525.41
2023-02-06T11:21:10.543Z,100539.41
2023-02-06T11:23:37.565Z,100533.88
2023-02-06T11:26:15.318Z,100458.16
2023-02-06T11:28:54.545Z,100523.16
2023-02-06T11:31:41.179Z,100517.06
2023-02-06T11:34:22.010Z,100505.03
2023-02-06T11:36:54.386Z,100513.78
2023-02-06T11:39:23.941Z,100523.94
2023-02-06T11:42:19.800Z,100531.81
2023-02-06T11:44:52.163Z,100527.31
2023-02-06T11:47:32.455Z,100525.56
2023-02-06T11:50:14.879Z,100537.88
2023-02-06T11:52:46.914Z,100536.81
2023-02-06T11:55:29.807Z,100517.41
2023-02-06T11:58:12.300Z,100526.50
2023-02-06T12:00:41.956Z,100531.38
2023-02-06T12:03:45.031Z,100537.28
2023-02-06T12:06:16.280Z,100531.44
2023-02-06T12:08:49.939Z,100529.00
2023-02-06T12:11:19.559Z,100532.31
2023-02-06T12:13:52.477Z,100538.00
2023-02-06T12:16:20.582Z,100533.25
2023-02-06T12:18:52.750Z,100527.59
2023-02-06T12:21:47.194Z,100519.25
2023-02-06T12:24:40.805Z,100549.56
2023-02-06T12:27:23.236Z,100477.56
2023-02-06T12:30:21.759Z,100544.31
2023-02-06T12:32:55.650Z,100531.63
2023-02-06T12:35:44.921Z,100554.81
2023-02-06T12:38:37.158Z,100562.50
2023-02-06T12:41:25.163Z,100552.91
2023-02-06T12:43:59.471Z,100570.72
2023-02-06T12:46:28.363Z,100557.91
2023-02-06T12:49:07.809Z,100571.41
2023-02-06T12:51:53.645Z,100560.44
2023-02-06T12:54:31.884Z,100572.03
2023-02-06T12:57:19.037Z,100567.91
2023-02-06T12:59:58.326Z,100574.13
2023-02-06T13:02:59.576Z,100569.22
2023-02-06T13:05:44.460Z,100561.13
2023-02-06T13:08:18.682Z,100558.44
2023-02-06T13:10:50.668Z,100568.97
2023-02-06T13:13:35.817Z,100570.56
2023-02-06T13:16:03.999Z,100577.47
2023-02-06T13:18:44.582Z,100587.47
2023-02-06T13:21:24.483Z,100585.81
2023-02-06T13:24:12.962Z,100576.03
2023-02-06T13:26:46.363Z,100586.50
2023-02-06T13:29:33.921Z,100592.84
2023-02-06T13:32:13.151Z,100589.16
2023-02-06T13:34:44.289Z,100592.84
2023-02-06T13:37:34.793Z,100589.84
2023-02-06T13:40:22.890Z,100607.25
2023-02-06T13:43:20.028Z,100583.91
2023-02-06T13:45:51.142Z,100577.38
2023-02-06T13:48:48.394Z,100596.22
2023-02-06T13:51:40.229Z,100594.91
2023-02-06T13:54:28.426Z,100600.50
2023-02-06T13:57:16.757Z,100590.78
2023-02-06T13:59:54.999Z,100597.16
2023-02-06T14:02:35.552Z,100587.09
2023-02-06T14:05:05.553Z,100587.00
2023-02-06T14:07:54.072Z,100595.31
2023-02-06T14:10:52.613Z,100590.69
2023-02-06T14:13:55.047Z,100612.97
2023-02-06T14:16:27.892Z,100620.38
2023-02-06T14:19:16.893Z,100628.31
2023-02-06T14:22:13.440Z,100621.47
2023-02-06T14:24:52.666Z,100608.72
2023-02-06T14:27:35.471Z,100603.09
2023-02-06T14:30:31.291Z,100610.25
2023-02-06T14:33:15.380Z,100616.78
2023-02-06T14:35:54.055Z,100624.94
2023-02-06T14:38:39.401Z,100628.69
2023-02-06T14:41:06.919Z,100622.44
2023-02-06T14:43:39.416Z,100623.50
2023-02-06T14:46:12.369Z,100597.91
2023-02-06T14:48:53.905Z,100626.63
2023-02-06T14:51:26.293Z,100642.84
2023-02-06T14:54:45.730Z,100638.09
2023-02-06T14:57:18.614Z,100644.53
2023-02-06T15:00:11.477Z,100650.38
2023-02-06T15:02:38.818Z,100652.06
2023-02-06T15:05:06.724Z,100659.13
2023-02-06T15:07:37.960Z,100652.69
2023-02-06T15:10:13.170Z,100648.09
2023-02-06T15:12:40.575Z,100652.06
2023-02-06T15:15:10.340Z,100654.34
2023-02-06T15:17:38.837Z,100672.88
2023-02-06T15:20:20.858Z,100662.91
2023-02-06T15:22:47.961Z,100674.16
2023-02-06T15:25:31.510Z,100663.75
2023-02-06T15:28:05.158Z,100662.31
2023-02-06T15:30:34.018Z,100664.59
2023-02-06T15:33:01.607Z,100688.28
2023-02-06T15:35:41.954Z,100652.50
2023-02-06T15:38:14.982Z,100634.25
2023-02-06T15:40:46.632Z,100696.81
2023-02-06T15:43:16.487Z,100695.75
2023-02-06T15:45:44.901Z,100694.72
2023-02-06T15:48:19.719Z,100678.94
2023-02-06T15:51:20.509Z,100710.31
2023-02-06T15:53:49.592Z,100712.41
2023-02-06T15:56:25.030Z,100702.81
2023-02-06T15:59:01.877Z,100721.72
2023-02-06T16:01:37.269Z,100704.03
2023-02-06T16:04:29.356Z,100727.78
2023-02-06T16:07:20.810Z,100727.38
2023-02-06T16:09:53.229Z,100729.88
2023-02-06T16:12:21.449Z,100734.44
2023-02-06T16:14:56.162Z,100726.13
2023-02-06T16:17:35.349Z,100728.59
2023-02-06T16:20:06.079Z,100718.00
2023-02-06T16:22:38.529Z,100734.84
2023-02-06T16:25:13.547Z,100732.34
2023-02-06T16:27:46.313Z,100754.00
2023-02-06T16:30:35.146Z,100758.75
2023-02-06T16:33:33.314Z,100772.06
2023-02-06T16:36:00.716Z,100772.22
2023-02-06T16:38:27.488Z,100773.09
2023-02-06T16:40:54.615Z,100788.06
2023-02-06T16:43:22.403Z,100779.78
2023-02-06T16:45:50.011Z,100781.41
2023-02-06T16:48:18.021Z,100762.25
2023-02-06T16:50:48.377Z,100777.19
2023-02-06T16:53:25.779Z,100769.69
2023-02-06T16:55:53.222Z,100769.13
2023-02-06T16:58:23.425Z,100792.22
2023-02-06T17:00:51.296Z,100783.91
2023-02-06T17:03:18.367Z,100781.00
2023-02-06T17:05:47.902Z,100774.31
2023-02-06T17:08:23.875Z,100801.78
2023-02-06T17:10:51.573Z,100796.78
2023-02-06T17:13:21.519Z,100792.84
2023-02-06T17:15:49.600Z,100786.78
2023-02-06T17:18:18.466Z,100788.44
2023-02-06T17:20:47.950Z,100796.78
2023-02-06T17:23:15.671Z,100799.91
2023-02-06T17:25:45.164Z,100798.88
2023-02-06T17:28:15.624Z,100803.00
2023-02-06T17:30:44.778Z,100799.28
2023-02-06T17:33:12.419Z,100796.56
2023-02-06T17:35:39.338Z,100797.19
2023-02-06T17:38:09.023Z,100800.91
2023-02-06T17:40:37.866Z,100805.28
2023-02-06T17:43:05.759Z,100805.91
2023-02-06T17:45:35.370Z,100813.78
2023-02-06T17:48:02.518Z,100814.03
2023-02-06T17:50:30.707Z,100811.13
2023-02-06T17:52:59.204Z,100811.75
2023-02-06T17:55:28.117Z,100808.66
2023-02-06T17:57:55.687Z,100820.09
2023-02-06T18:00:24.627Z,100824.66
2023-02-06T18:02:53.218Z,100813.59
2023-02-06T18:05:21.123Z,100815.25
2023-02-06T18:07:50.690Z,100827.13
2023-02-06T18:10:19.901Z,100830.06
2023-02-06T18:12:47.539Z,100837.53
2023-02-06T18:15:15.525Z,100808.97
2023-02-06T18:17:43.512Z,100827.94
2023-02-06T18:20:11.998Z,100826.06
2023-02-06T18:22:41.317Z,100816.28
2023-02-06T18:25:14.451Z,100842.53
2023-02-06T18:27:45.189Z,100845.81
2023-02-06T18:30:13.031Z,100839.59
2023-02-06T18:32:39.906Z,100827.09
2023-02-06T18:35:10.318Z,100834.13
2023-02-06T18:37:37.406Z,100821.16
2023-02-06T18:40:04.719Z,100832.59
2023-02-06T18:42:50.578Z,100830.09
2023-02-06T18:45:18.882Z,100834.75
2023-02-06T18:47:45.921Z,100836.66
2023-02-06T18:50:13.250Z,100821.66
2023-02-06T18:52:40.066Z,100821.59
2023-02-06T18:55:08.698Z,100831.22
2023-02-06T18:57:36.793Z,100828.13
2023-02-06T19:00:11.662Z,100822.53
2023-02-06T19:02:38.605Z,100821.28
2023-02-06T19:05:05.490Z,100826.69
2023-02-06T19:07:32.802Z,100809.44
2023-02-06T19:10:01.403Z,100831.09
2023-02-06T19:12:29.608Z,100845.63
2023-02-06T19:14:57.946Z,100851.25
2023-02-06T19:17:27.282Z,100851.19
2023-02-06T19:19:54.874Z,100849.56
2023-02-06T19:22:22.054Z,100863.88
2023-02-06T19:24:51.504Z,100852.00
2023-02-06T19:27:18.554Z,100850.28
2023-02-06T19:29:46.157Z,100863.19
2023-02-06T19:32:13.853Z,100843.03
2023-02-06T19:34:42.076Z,100855.53
2023-02-06T19:37:10.281Z,100860.75
2023-02-06T19:39:40.259Z,100872.22
2023-02-06T19:42:10.206Z,100856.38
2023-02-06T19:44:37.512Z,100867.81
2023-02-06T19:47:04.578Z,100874.75
2023-02-06T19:49:31.729Z,100880.97
2023-02-06T19:51:58.679Z,100862.25
2023-02-06T19:54:25.744Z,100871.78
2023-02-06T19:56:52.616Z,100875.66
2023-02-06T19:59:25.978Z,100877.81
2023-02-06T20:01:58.259Z,100877.81
2023-02-06T20:04:28.727Z,100870.22
2023-02-06T20:06:56.422Z,100860.41
2023-02-06T20:09:24.378Z,100874.97
2023-02-06T20:11:52.241Z,100876.84
2023-02-06T20:14:19.266Z,100879.72
2023-02-06T20:16:47.513Z,100875.13
2023-02-06T20:19:18.686Z,100879.34
2023-02-06T20:21:49.352Z,100855.44
2023-02-06T20:24:20.908Z,100880.19
2023-02-06T20:26:49.839Z,100867.31
2023-02-06T20:29:25.338Z,100878.97
2023-02-06T20:31:52.964Z,100868.13
2023-02-06T20:34:21.801Z,100875.63
2023-02-06T20:36:49.908Z,100870.28
2023-02-06T20:39:18.184Z,100862.78
2023-02-06T20:41:45.971Z,100873.63
2023-02-06T20:44:14.439Z,100870.63
2023-02-06T20:46:42.409Z,100875.19
2023-02-06T20:49:16.002Z,100876.03
2023-02-06T20:51:43.042Z,100886.50
2023-02-06T20:54:13.553Z,100887.72
2023-02-06T20:56:41.087Z,100881.69
2023-02-06T20:59:11.917Z,100893.81
2023-02-06T21:01:40.044Z,100885.66
2023-02-06T21:04:09.577Z,100885.41
2023-02-06T21:06:37.413Z,100887.91
2023-02-06T21:09:06.356Z,100881.03
2023-02-06T21:11:36.854Z,100889.53
2023-02-06T21:14:05.353Z,100896.41
2023-02-06T21:16:33.347Z,100888.97
2023-02-06T21:19:01.657Z,100882.69
2023-02-06T21:21:28.639Z,100859.38
2023-02-06T21:23:55.980Z,100879.13
2023-02-06T21:26:24.014Z,100892.25
2023-02-06T21:28:51.914Z,100886.44
2023-02-06T21:31:24.680Z,100880.81
2023-02-06T21:33:52.750Z,100899.75
2023-02-06T21:36:21.233Z,100902.06
2023-02-06T21:38:48.278Z,100899.78
2023-02-06T21:41:17.733Z,100903.44
2023-02-06T21:43:45.579Z,100912.16
2023-02-06T21:46:13.303Z,100894.00
2023-02-06T21:48:41.681Z,100911.91
2023-02-06T21:51:13.408Z,100913.16
2023-02-06T21:53:40.690Z,100914.03
2023-02-06T21:56:28.414Z,100912.97
2023-02-06T21:58:55.623Z,100906.53
2023-02-06T22:01:26.477Z,100917.13
2023-02-06T22:03:54.111Z,100907.09
2023-02-06T22:06:21.564Z,100911.44
2023-02-06T22:08:54.312Z,100922.22
2023-02-06T22:11:27.270Z,100922.41
2023-02-06T22:14:02.483Z,100923.56
2023-02-06T22:16:29.753Z,100917.34
2023-02-06T22:18:57.287Z,100924.25
2023-02-06T22:21:26.952Z,100921.06
2023-02-06T22:23:57.349Z,100923.53
2023-02-06T22:26:25.357Z,100909.16
2023-02-06T22:28:52.502Z,100912.34
2023-02-06T22:31:24.673Z,100915.66
2023-02-06T22:33:52.503Z,100900.34
2023-02-06T22:36:24.386Z,100915.13
2023-02-06T22:39:12.553Z,100915.66
2023-02-06T22:41:44.798Z,100911.94
2023-02-06T22:44:16.296Z,100915.03
2023-02-06T22:46:46.432Z,100927.00
2023-02-06T22:49:13.847Z,100903.09
2023-02-06T22:51:41.654Z,100920.22
2023-02-06T22:54:11.910Z,100919.41
2023-02-06T22:56:41.156Z,100914.38
2023-02-06T22:59:22.786Z,100908.34
2023-02-06T23:01:55.255Z,100909.78
2023-02-06T23:04:28.394Z,100916.44
2023-02-06T23:06:55.735Z,100919.78
2023-02-06T23:09:29.414Z,100909.00
2023-02-06T23:11:58.427Z,100913.16
2023-02-06T23:14:26.431Z,100906.25
2023-02-06T23:16:53.516Z,100900.00
2023-02-06T23:19:20.806Z,100914.00
2023-02-06T23:21:49.465Z,100914.00
2023-02-06T23:24:16.822Z,100913.47
2023-02-06T23:26:45.965Z,100914.94
2023-02-06T23:29:17.988Z,100907.88
2023-02-06T23:31:46.844Z,100913.06
2023-02-06T23:34:14.479Z,100911.16
2023-02-06T23:36:41.319Z,100909.97
2023-02-06T23:39:08.350Z,100916.56
2023-02-06T23:41:35.432Z,100923.75
2023-02-06T23:44:05.186Z,100892.38
2023-02-06T23:46:34.742Z,100922.38
2023-02-06T23:49:01.683Z,100909.03
2023-02-06T23:51:28.734Z,100925.28
2023-02-06T23:53:55.626Z,100924.44
2023-02-06T23:56:29.116Z,100920.97
2023-02-06T23:58:56.918Z,100922.56
